Terminal Aerodrome Forecast
Issued by NWS

Home | Current Version | Previous Version | Text Only | Print | Product List | Glossary Off
Versions: 1 2 3 4 5 6 7 8 9 10 11 12 13 14 15 16 17 18 19 20 21 22

000
FTUS43 KIWX 171032 AAB
TAFSBN
TAF AMD
KSBN 171032Z 1711/1806 13010KT 2SM -RA BR OVC005 WS020/19035KT
      TEMPO 1711/1714 1/2SM FG OVC002
     FM171400 24009KT 2SM BR OVC003
     FM180000 27008KT 3SM BR OVC006=

USA.gov is the U.S. government's official web portal to all federal, state and local government web resources and services.